Time;durP1;ratioP1;P1;durP2;ratioP2;P2;SDS_P1;SDS_P2;PMS_P1;PMS_P2;Temp;Humidity;BMP_temperature;BMP_pressure;BME280_temperature;BME280_humidity;BME280_pressure;Samples;Min_cycle;Max_cycle;Signal;HPM_P1;HPM_P2
2024/01/17 00:02:05;;;;;;;1410.93;999.90;;;27.60;99.90;;;;;;5014179;28;20053;-75
2024/01/17 00:04:32;;;;;;;1398.43;999.90;;;27.60;99.90;;;;;;5013537;28;20022;-73
2024/01/17 00:06:58;;;;;;;1386.05;999.90;;;27.70;99.90;;;;;;5014008;28;20486;-72
2024/01/17 00:09:25;;;;;;;1381.68;999.90;;;27.70;99.90;;;;;;5014224;28;20026;-72
2024/01/17 00:11:51;;;;;;;1396.70;999.90;;;27.70;99.90;;;;;;5014135;28;20021;-72
2024/01/17 00:14:18;;;;;;;1409.18;999.90;;;27.70;99.90;;;;;;5013988;28;20069;-72
2024/01/17 00:16:44;;;;;;;1394.03;999.90;;;27.70;99.90;;;;;;5013286;28;20040;-72
2024/01/17 00:19:11;;;;;;;1400.32;999.90;;;27.70;99.90;;;;;;5013993;28;20030;-71
2024/01/17 00:21:38;;;;;;;1390.00;999.90;;;27.70;99.90;;;;;;5013923;28;20100;-72
2024/01/17 00:24:04;;;;;;;1389.53;999.90;;;27.70;99.90;;;;;;5013646;28;20030;-71
2024/01/17 00:26:31;;;;;;;1400.95;999.90;;;27.70;99.90;;;;;;5013320;28;20041;-71
2024/01/17 00:28:57;;;;;;;1395.72;999.90;;;27.70;99.90;;;;;;5013892;28;20018;-71
2024/01/17 00:31:24;;;;;;;1388.78;999.90;;;27.70;99.90;;;;;;5013606;28;20022;-72
2024/01/17 00:33:50;;;;;;;1416.90;999.90;;;27.70;99.90;;;;;;5013871;28;20021;-71
2024/01/17 00:36:17;;;;;;;1402.82;999.90;;;27.70;99.90;;;;;;5013693;28;20025;-71
2024/01/17 00:38:43;;;;;;;1421.68;999.90;;;27.60;99.90;;;;;;5013589;28;20021;-71
2024/01/17 00:41:10;;;;;;;1436.90;999.90;;;27.60;99.90;;;;;;5013659;28;20026;-71
2024/01/17 00:43:37;;;;;;;1425.45;999.90;;;27.60;99.90;;;;;;5013554;28;20029;-72
2024/01/17 00:46:04;;;;;;;1389.07;999.90;;;27.70;99.90;;;;;;5013458;28;20025;-73
2024/01/17 00:48:31;;;;;;;1403.90;999.90;;;27.70;99.90;;;;;;5013617;28;20112;-72
2024/01/17 00:50:57;;;;;;;1388.68;999.90;;;27.70;99.90;;;;;;5013602;28;20018;-73
2024/01/17 00:53:24;;;;;;;1384.38;999.90;;;27.70;99.90;;;;;;5012695;28;20018;-72
2024/01/17 00:55:50;;;;;;;1407.32;999.90;;;27.70;99.90;;;;;;5013492;28;20426;-73
2024/01/17 00:58:18;;;;;;;1383.50;999.90;;;27.80;99.90;;;;;;5013417;28;20046;-73
2024/01/17 01:00:44;;;;;;;1401.10;999.90;;;27.70;99.90;;;;;;5013290;28;20392;-74
2024/01/17 01:03:11;;;;;;;1416.75;999.90;;;27.70;99.90;;;;;;5013400;28;20018;-74
2024/01/17 01:05:38;;;;;;;1457.45;999.90;;;27.70;99.90;;;;;;5013410;28;20025;-73
2024/01/17 01:08:04;;;;;;;1389.65;999.90;;;27.70;99.90;;;;;;5012585;28;20033;-72
2024/01/17 01:10:31;;;;;;;1398.18;999.90;;;27.70;99.90;;;;;;4995985;28;20029;-72
2024/01/17 01:12:58;;;;;;;1411.80;999.90;;;27.70;99.90;;;;;;4993814;28;20089;-72
2024/01/17 01:15:24;;;;;;;1385.03;999.90;;;27.80;99.90;;;;;;4993577;28;20110;-71
2024/01/17 01:17:51;;;;;;;1378.47;999.90;;;27.80;99.90;;;;;;5005966;28;20447;-72
2024/01/17 01:20:17;;;;;;;1387.13;999.90;;;27.70;99.90;;;;;;5013233;28;20057;-73
2024/01/17 01:22:44;;;;;;;1375.68;999.90;;;27.70;99.90;;;;;;5013223;28;20108;-73
2024/01/17 01:25:10;;;;;;;1373.88;999.90;;;27.70;99.90;;;;;;5011888;28;20046;-72
2024/01/17 01:27:37;;;;;;;1402.05;999.90;;;27.80;99.90;;;;;;5013186;28;20464;-72
2024/01/17 01:30:04;;;;;;;1383.18;999.90;;;27.80;99.90;;;;;;5013232;28;20022;-71
2024/01/17 01:32:30;;;;;;;1383.18;999.90;;;27.80;99.90;;;;;;5013268;28;20109;-70
2024/01/17 01:34:57;;;;;;;1368.03;999.90;;;27.90;99.90;;;;;;5019811;28;20394;-70
2024/01/17 01:37:23;;;;;;;1398.25;999.90;;;27.90;99.90;;;;;;5003036;28;20061;-71
2024/01/17 01:39:49;;;;;;;1394.13;999.90;;;28.00;99.90;;;;;;5016706;28;20429;-72
2024/01/17 01:42:16;;;;;;;1394.10;999.90;;;28.00;99.90;;;;;;5016704;28;20053;-71
2024/01/17 01:44:45;;;;;;;1392.50;999.90;;;28.00;99.90;;;;;;5016648;28;20057;-71
2024/01/17 01:47:13;;;;;;;1375.85;999.90;;;28.00;99.90;;;;;;5016531;28;20079;-71
2024/01/17 01:49:40;;;;;;;1355.38;999.90;;;28.10;99.90;;;;;;5016554;28;20022;-72
2024/01/17 01:52:08;;;;;;;1390.90;999.90;;;28.10;99.90;;;;;;5016520;28;20092;-71
2024/01/17 01:54:36;;;;;;;1395.10;999.90;;;28.10;99.90;;;;;;5016349;28;20112;-71
2024/01/17 01:57:04;;;;;;;1372.50;999.90;;;28.20;99.90;;;;;;5016486;28;20026;-71
2024/01/17 01:59:31;;;;;;;1387.30;999.90;;;28.20;99.90;;;;;;5016427;28;20033;-70
2024/01/17 02:01:58;;;;;;;1365.20;999.90;;;28.20;99.90;;;;;;5016334;28;20025;-71
2024/01/17 02:04:27;;;;;;;1351.70;999.90;;;28.30;99.90;;;;;;5016202;28;20062;-71
2024/01/17 02:06:58;;;;;;;1322.60;999.90;;;28.30;99.90;;;;;;5014614;28;20099;-71
2024/01/17 02:09:25;;;;;;;1371.82;999.90;;;28.40;99.90;;;;;;5016173;28;20018;-72
2024/01/17 02:11:52;;;;;;;1349.10;999.90;;;28.40;99.90;;;;;;5016147;28;20037;-74
2024/01/17 02:14:20;;;;;;;1358.20;999.90;;;28.50;99.90;;;;;;5016330;28;20072;-75
2024/01/17 02:16:46;;;;;;;1365.30;999.90;;;28.50;99.90;;;;;;5016148;28;20042;-72
2024/01/17 02:19:19;;;;;;;1356.22;999.90;;;28.50;99.90;;;;;;5016071;28;20062;-71
2024/01/17 02:21:46;;;;;;;1358.03;999.90;;;28.50;99.90;;;;;;5015838;28;20541;-71
2024/01/17 02:24:20;;;;;;;1324.50;999.90;;;28.60;99.90;;;;;;5015864;28;20504;-74
2024/01/17 02:26:47;;;;;;;1333.57;999.90;;;28.60;99.90;;;;;;5015900;28;20101;-73
2024/01/17 02:29:13;;;;;;;1360.30;999.90;;;28.70;99.90;;;;;;5015707;28;20018;-73
2024/01/17 02:31:41;;;;;;;1318.00;999.90;;;28.70;99.90;;;;;;5015918;28;20048;-73
2024/01/17 02:34:07;;;;;;;1368.75;999.90;;;28.70;99.90;;;;;;5015730;28;20060;-73
2024/01/17 02:36:34;;;;;;;1333.63;999.90;;;28.90;99.90;;;;;;5015651;28;20029;-72
2024/01/17 02:39:00;;;;;;;1376.07;999.90;;;28.90;99.90;;;;;;5015774;28;20033;-69
2024/01/17 02:41:27;;;;;;;1304.55;999.90;;;28.90;99.90;;;;;;5015593;28;20482;-69
2024/01/17 02:43:53;;;;;;;1360.82;999.90;;;28.90;99.90;;;;;;5015318;28;20030;-69
2024/01/17 02:46:23;;;;;;;1366.22;999.90;;;28.90;99.90;;;;;;5015219;28;20018;-69
2024/01/17 02:48:49;;;;;;;1360.90;999.90;;;28.90;99.90;;;;;;5014696;28;20022;-70
2024/01/17 02:51:16;;;;;;;1366.95;999.90;;;29.00;99.90;;;;;;5015271;28;20549;-70
2024/01/17 02:53:42;;;;;;;1358.07;999.90;;;29.10;99.90;;;;;;5015474;28;20026;-73
2024/01/17 02:56:09;;;;;;;1338.68;999.90;;;29.20;99.90;;;;;;5015307;28;20372;-74
2024/01/17 02:58:35;;;;;;;1324.97;999.90;;;29.20;99.90;;;;;;5027741;28;20257;-73
2024/01/17 03:01:02;;;;;;;1338.15;999.90;;;29.20;99.90;;;;;;5020104;28;20034;-74
2024/01/17 03:03:28;;;;;;;1367.63;999.90;;;29.20;99.90;;;;;;5025671;28;20029;-74
2024/01/17 03:05:56;;;;;;;1371.38;999.90;;;29.10;99.90;;;;;;5023065;28;20376;-74
2024/01/17 03:08:22;;;;;;;1371.97;999.90;;;29.10;99.90;;;;;;5021761;28;20034;-74
2024/01/17 03:10:49;;;;;;;1264.72;999.90;;;29.10;99.90;;;;;;5025299;28;20013;-74
2024/01/17 03:13:16;;;;;;;1358.43;999.90;;;29.10;99.90;;;;;;5032776;28;20025;-74
2024/01/17 03:15:42;;;;;;;1353.03;999.90;;;29.20;99.90;;;;;;5034675;28;20547;-74
2024/01/17 03:18:13;;;;;;;1361.07;999.90;;;29.10;99.90;;;;;;5034817;28;20100;-74
2024/01/17 03:20:41;;;;;;;1359.63;999.90;;;29.20;99.90;;;;;;5034592;28;20018;-74
2024/01/17 03:23:07;;;;;;;1372.60;999.90;;;29.20;99.90;;;;;;5034485;28;20104;-75
2024/01/17 03:25:34;;;;;;;1324.13;999.90;;;29.30;99.90;;;;;;5034536;28;20503;-75
2024/01/17 03:28:00;;;;;;;1351.65;999.90;;;29.40;99.90;;;;;;5034506;28;20018;-74
2024/01/17 03:30:27;;;;;;;1335.95;999.90;;;29.40;99.90;;;;;;5034254;28;20502;-75
2024/01/17 03:32:53;;;;;;;1366.07;999.90;;;29.40;99.90;;;;;;5034513;28;20021;-74
2024/01/17 03:35:20;;;;;;;1369.32;999.90;;;29.50;99.90;;;;;;5034293;28;20021;-68
2024/01/17 03:37:46;;;;;;;1367.15;999.90;;;29.60;99.90;;;;;;5034549;28;20045;-68
2024/01/17 03:40:13;;;;;;;1363.85;999.90;;;29.60;99.90;;;;;;5034284;28;20104;-68
2024/01/17 03:42:40;;;;;;;1370.65;999.90;;;29.70;99.90;;;;;;5034206;28;20478;-72
2024/01/17 03:45:06;;;;;;;1371.63;999.90;;;29.80;99.90;;;;;;5034145;28;20084;-73
2024/01/17 03:47:33;;;;;;;1333.78;999.90;;;29.80;99.90;;;;;;5034397;28;20347;-73
2024/01/17 03:49:59;;;;;;;1296.60;999.90;;;29.80;99.90;;;;;;5033914;28;20052;-73
2024/01/17 03:52:26;;;;;;;1347.07;999.90;;;29.90;99.90;;;;;;5033927;28;20117;-73
2024/01/17 03:54:52;;;;;;;1356.90;999.90;;;29.90;99.90;;;;;;5033998;28;20025;-74
2024/01/17 03:57:19;;;;;;;1296.50;999.90;;;29.90;99.90;;;;;;5033980;28;20044;-74
2024/01/17 03:59:45;;;;;;;1353.07;999.90;;;30.00;99.90;;;;;;5033818;28;20037;-74
2024/01/17 04:02:12;;;;;;;1359.10;999.90;;;30.00;99.90;;;;;;5033163;28;20029;-71
2024/01/17 04:04:40;;;;;;;1370.90;999.90;;;30.10;99.90;;;;;;5013447;28;20026;-71
2024/01/17 04:07:09;;;;;;;1293.65;999.90;;;30.10;99.90;;;;;;4997197;28;20018;-72
2024/01/17 04:09:35;;;;;;;1345.60;999.90;;;30.10;99.90;;;;;;4994493;28;20023;-71
2024/01/17 04:12:02;;;;;;;1363.35;999.90;;;30.00;99.90;;;;;;4994157;28;20048;-75
2024/01/17 04:14:29;;;;;;;1373.85;999.90;;;30.00;99.90;;;;;;4994237;28;20023;-73
2024/01/17 04:16:56;;;;;;;1363.95;999.90;;;30.00;99.90;;;;;;4994318;28;20038;-73
2024/01/17 04:19:22;;;;;;;1368.93;999.90;;;30.00;99.90;;;;;;5024370;28;20014;-72
2024/01/17 04:21:49;;;;;;;1382.18;999.90;;;30.00;99.90;;;;;;5022815;28;20076;-75
2024/01/17 04:24:15;;;;;;;1380.03;999.90;;;29.90;99.90;;;;;;5022936;28;20037;-72
2024/01/17 04:26:42;;;;;;;1366.13;999.90;;;30.00;99.90;;;;;;5024443;28;20017;-72
2024/01/17 04:29:08;;;;;;;1376.90;999.90;;;30.00;99.90;;;;;;5023137;28;20383;-72
2024/01/17 04:31:35;;;;;;;1377.63;999.90;;;30.10;99.90;;;;;;5022510;28;20017;-72
2024/01/17 04:34:02;;;;;;;1371.05;999.90;;;30.10;99.90;;;;;;5024238;28;20056;-72
2024/01/17 04:36:29;;;;;;;1373.75;999.90;;;30.20;99.90;;;;;;5023472;28;20018;-71
2024/01/17 04:38:56;;;;;;;1347.53;999.90;;;30.10;99.90;;;;;;5021884;28;20513;-73
2024/01/17 04:41:23;;;;;;;1395.80;999.90;;;30.10;99.90;;;;;;5019968;28;20112;-73
2024/01/17 04:43:50;;;;;;;1371.85;999.90;;;30.20;99.90;;;;;;5022892;28;20017;-73
2024/01/17 04:46:17;;;;;;;1372.68;999.90;;;30.30;99.90;;;;;;5024087;28;20379;-73
2024/01/17 04:48:45;;;;;;;1358.38;999.90;;;30.30;99.90;;;;;;5020202;28;20416;-73
2024/01/17 04:51:12;;;;;;;1414.13;999.90;;;30.30;99.90;;;;;;5033186;28;20026;-74
2024/01/17 04:53:48;;;;;;;1359.57;999.90;;;30.30;99.90;;;;;;5033289;28;20021;-71
2024/01/17 04:56:16;;;;;;;1326.68;999.90;;;30.30;99.90;;;;;;5033186;28;20032;-72
2024/01/17 04:58:45;;;;;;;1393.57;999.90;;;30.40;99.90;;;;;;5033062;28;20041;-70
2024/01/17 05:01:11;;;;;;;1399.97;999.90;;;30.30;99.90;;;;;;5033233;28;20026;-70
2024/01/17 05:03:41;;;;;;;1392.03;999.90;;;30.40;99.90;;;;;;5033169;28;20022;-76
2024/01/17 05:06:08;;;;;;;1387.60;999.90;;;30.40;99.90;;;;;;5033040;28;20021;-75
2024/01/17 05:08:34;;;;;;;1399.57;999.90;;;30.40;99.90;;;;;;5024350;28;20014;-75
2024/01/17 05:11:01;;;;;;;1381.60;999.90;;;30.60;99.90;;;;;;4993716;28;20014;-74
2024/01/17 05:13:28;;;;;;;1406.80;999.90;;;30.80;99.90;;;;;;5019377;28;20121;-74
2024/01/17 05:15:54;;;;;;;1416.13;999.90;;;31.00;99.90;;;;;;5027411;28;20449;-73
2024/01/17 05:18:21;;;;;;;1433.50;999.90;;;31.10;99.90;;;;;;5027643;28;20056;-74
2024/01/17 05:20:47;;;;;;;1420.80;999.90;;;31.20;99.90;;;;;;4997623;28;20023;-73
2024/01/17 05:23:14;;;;;;;1403.63;999.90;;;31.30;99.90;;;;;;4997627;28;20019;-74
2024/01/17 05:25:40;;;;;;;1379.22;999.90;;;31.30;99.90;;;;;;4997446;28;20042;-75
2024/01/17 05:28:07;;;;;;;1364.65;999.90;;;31.20;99.90;;;;;;4997410;28;20025;-75
2024/01/17 05:30:34;;;;;;;1392.95;999.90;;;31.20;99.90;;;;;;4997444;28;20026;-75
2024/01/17 05:33:00;;;;;;;1386.38;999.90;;;31.20;99.90;;;;;;4997302;28;20018;-74
2024/01/17 05:35:28;;;;;;;1372.25;999.90;;;31.20;99.90;;;;;;4997209;28;20104;-71
2024/01/17 05:37:55;;;;;;;1395.50;999.90;;;31.20;99.90;;;;;;4997314;28;20034;-73
2024/01/17 05:40:22;;;;;;;1365.78;999.90;;;31.30;99.90;;;;;;4997482;28;20045;-75
2024/01/17 05:42:48;;;;;;;1362.30;999.90;;;31.40;99.90;;;;;;4997095;28;20022;-76
2024/01/17 05:45:15;;;;;;;1376.32;999.90;;;31.50;99.90;;;;;;4997089;28;20120;-71
2024/01/17 05:47:42;;;;;;;1350.43;999.90;;;31.60;99.90;;;;;;4997416;28;20106;-71
2024/01/17 05:50:09;;;;;;;1363.95;999.90;;;31.70;99.90;;;;;;4996837;28;20031;-71
2024/01/17 05:52:39;;;;;;;1410.22;999.90;;;31.80;99.90;;;;;;4997257;28;20499;-72
2024/01/17 05:55:09;;;;;;;1396.53;999.90;;;31.80;99.90;;;;;;4997098;28;20116;-69
2024/01/17 05:57:37;;;;;;;1401.25;999.90;;;31.90;99.90;;;;;;4996655;28;20026;-69
2024/01/17 06:00:08;;;;;;;1398.60;999.90;;;31.90;99.90;;;;;;4996803;28;20069;-70
2024/01/17 06:02:36;;;;;;;1395.07;999.90;;;32.00;99.90;;;;;;4996789;28;20062;-70
2024/01/17 06:05:03;;;;;;;1404.97;999.90;;;32.00;99.90;;;;;;4996610;28;20037;-70
2024/01/17 06:07:30;;;;;;;1377.38;999.90;;;31.90;99.90;;;;;;4996715;28;20379;-69
2024/01/17 06:09:57;;;;;;;1363.70;999.90;;;31.90;99.90;;;;;;4996609;28;20018;-70
2024/01/17 06:12:24;;;;;;;1367.93;999.90;;;31.90;99.90;;;;;;4996480;28;20022;-69
2024/01/17 06:14:51;;;;;;;1374.82;999.90;;;31.90;99.90;;;;;;4996677;28;20022;-70
2024/01/17 06:17:18;;;;;;;1374.88;999.90;;;32.00;99.90;;;;;;4996502;28;20061;-70
2024/01/17 06:19:45;;;;;;;1404.50;999.90;;;31.90;99.90;;;;;;5006527;28;20479;-70
2024/01/17 06:22:12;;;;;;;1423.15;999.90;;;31.90;99.90;;;;;;5016996;28;20426;-72
2024/01/17 06:24:38;;;;;;;1419.95;999.90;;;31.90;99.90;;;;;;5015641;28;20046;-70
2024/01/17 06:27:05;;;;;;;1438.50;999.90;;;31.80;99.90;;;;;;5016654;28;20030;-71
2024/01/17 06:29:33;;;;;;;1441.38;999.90;;;31.80;99.90;;;;;;5021959;28;20018;-71
2024/01/17 06:32:01;;;;;;;1410.00;999.90;;;31.80;99.90;;;;;;5026114;28;20024;-71
2024/01/17 06:34:28;;;;;;;1370.80;999.90;;;31.80;99.90;;;;;;5026143;28;20025;-70
2024/01/17 06:36:54;;;;;;;1381.28;999.90;;;31.80;99.90;;;;;;5024542;28;20113;-72
2024/01/17 06:39:21;;;;;;;1399.47;999.90;;;31.80;99.90;;;;;;5025560;28;20017;-71
2024/01/17 06:41:47;;;;;;;1402.43;999.90;;;31.80;99.90;;;;;;5025834;28;20026;-72
2024/01/17 06:44:14;;;;;;;1451.65;999.90;;;31.80;99.90;;;;;;5023641;28;20028;-72
2024/01/17 06:46:40;;;;;;;1409.03;999.90;;;31.80;99.90;;;;;;5022801;28;20022;-73
2024/01/17 06:49:07;;;;;;;1410.85;999.90;;;31.80;99.90;;;;;;5020652;28;20364;-70
2024/01/17 06:51:34;;;;;;;1359.97;999.90;;;31.90;99.90;;;;;;5020728;28;20013;-71
2024/01/17 06:54:00;;;;;;;1425.78;999.90;;;31.90;99.90;;;;;;5020281;28;20050;-71
2024/01/17 06:56:27;;;;;;;1420.20;999.90;;;32.00;99.90;;;;;;5019901;28;20029;-71
2024/01/17 06:58:54;;;;;;;1373.45;999.90;;;32.00;99.90;;;;;;5023244;28;20418;-70
2024/01/17 07:01:21;;;;;;;1462.68;999.90;;;31.90;99.90;;;;;;5024700;28;20081;-72
2024/01/17 07:03:47;;;;;;;1458.53;999.90;;;31.90;99.90;;;;;;5023791;28;20021;-71
2024/01/17 07:06:14;;;;;;;1460.95;999.90;;;31.90;99.90;;;;;;5025745;28;20027;-71
2024/01/17 07:08:41;;;;;;;1423.53;999.90;;;31.90;99.90;;;;;;5024067;28;20061;-69
2024/01/17 07:11:11;;;;;;;1455.07;999.90;;;31.90;99.90;;;;;;5021707;28;20018;-71
2024/01/17 07:13:38;;;;;;;1507.25;999.90;;;31.90;99.90;;;;;;5019640;28;20037;-69
2024/01/17 07:16:06;;;;;;;1487.20;999.90;;;31.90;99.90;;;;;;5018759;28;20044;-75
2024/01/17 07:18:34;;;;;;;1464.68;999.90;;;31.90;99.90;;;;;;5025418;28;20032;-72
2024/01/17 07:21:10;;;;;;;1483.45;999.90;;;31.90;99.90;;;;;;5024362;28;20036;-71
2024/01/17 07:23:38;;;;;;;1466.35;999.90;;;31.90;99.90;;;;;;5020975;28;20034;-71
2024/01/17 07:26:06;;;;;;;1485.68;999.90;;;32.00;99.90;;;;;;5015546;28;20519;-70
2024/01/17 07:28:33;;;;;;;1446.75;999.90;;;31.90;99.90;;;;;;5025591;28;20072;-70
2024/01/17 07:30:59;;;;;;;1462.70;999.90;;;31.80;99.90;;;;;;5023871;28;20100;-70
2024/01/17 07:33:26;;;;;;;1452.82;999.90;;;31.80;99.90;;;;;;5025174;28;20021;-70
2024/01/17 07:35:52;;;;;;;1402.70;999.90;;;31.80;99.90;;;;;;5023607;28;20431;-71
2024/01/17 07:38:19;;;;;;;1412.18;999.90;;;31.70;99.90;;;;;;5021582;28;20017;-70
2024/01/17 07:40:46;;;;;;;1438.85;999.90;;;31.60;99.90;;;;;;5024332;28;20021;-70
2024/01/17 07:43:14;;;;;;;1400.03;999.90;;;31.60;99.90;;;;;;5022969;28;20486;-70
2024/01/17 07:45:40;;;;;;;1448.25;999.90;;;31.50;99.90;;;;;;5024445;28;20059;-69
2024/01/17 07:48:07;;;;;;;1451.18;999.90;;;31.40;99.90;;;;;;5022733;28;20025;-70
2024/01/17 07:50:33;;;;;;;1447.82;999.90;;;31.30;99.90;;;;;;5024936;28;20466;-71
2024/01/17 07:53:01;;;;;;;1451.65;999.90;;;31.20;99.90;;;;;;5018583;28;20076;-70
2024/01/17 07:55:28;;;;;;;1398.03;999.90;;;31.10;99.90;;;;;;5023981;28;20038;-70
2024/01/17 07:57:55;;;;;;;1391.75;999.90;;;30.90;99.90;;;;;;5017291;28;20026;-70
2024/01/17 08:00:22;;;;;;;1406.25;999.90;;;30.90;99.90;;;;;;5014356;28;20072;-70
2024/01/17 08:02:48;;;;;;;1461.38;999.90;;;30.80;99.90;;;;;;5014103;28;20486;-71
2024/01/17 08:05:15;;;;;;;1459.60;999.90;;;30.80;99.90;;;;;;5014073;28;20036;-71
2024/01/17 08:07:42;;;;;;;1456.18;999.90;;;30.80;99.90;;;;;;5014087;28;20356;-71
2024/01/17 08:10:09;;;;;;;1461.80;999.90;;;30.70;99.90;;;;;;5014019;28;20065;-70
2024/01/17 08:12:35;;;;;;;1447.40;999.90;;;30.70;99.90;;;;;;5014100;28;20021;-70
2024/01/17 08:15:02;;;;;;;1382.97;999.90;;;30.60;99.90;;;;;;5014057;28;20018;-70
2024/01/17 08:17:28;;;;;;;1395.78;999.90;;;30.60;99.90;;;;;;5013827;28;20105;-69
2024/01/17 08:19:55;;;;;;;1445.28;999.90;;;30.60;99.90;;;;;;5015459;28;20105;-70
2024/01/17 08:22:21;;;;;;;1460.07;999.90;;;30.60;99.90;;;;;;5023954;28;20028;-69
2024/01/17 08:24:48;;;;;;;1453.90;999.90;;;30.50;99.90;;;;;;5023497;28;20065;-68
2024/01/17 08:27:14;;;;;;;1400.45;999.90;;;30.50;99.90;;;;;;5022318;28;20041;-67
2024/01/17 08:29:44;;;;;;;1450.45;999.90;;;30.50;99.90;;;;;;5023878;28;20071;-66
2024/01/17 08:32:11;;;;;;;1461.95;999.90;;;30.50;99.90;;;;;;5018225;28;20061;-70
2024/01/17 08:34:38;;;;;;;1449.78;999.90;;;30.50;99.90;;;;;;5016387;28;20030;-69
2024/01/17 08:37:04;;;;;;;1455.82;999.90;;;30.50;99.90;;;;;;5013671;28;20025;-70
2024/01/17 08:39:31;;;;;;;1464.50;999.90;;;30.40;99.90;;;;;;5013584;28;20061;-72
2024/01/17 08:41:57;;;;;;;1459.63;999.90;;;30.40;99.90;;;;;;5013735;28;20022;-70
2024/01/17 08:44:25;;;;;;;1409.78;999.90;;;30.30;99.90;;;;;;5013549;28;20029;-70
2024/01/17 08:46:52;;;;;;;1408.72;999.90;;;30.20;99.90;;;;;;5013071;28;20018;-69
2024/01/17 08:49:20;;;;;;;1483.18;999.90;;;30.10;99.90;;;;;;5013814;28;20053;-73
2024/01/17 08:51:47;;;;;;;1471.13;999.90;;;30.10;99.90;;;;;;5013325;28;20030;-74
2024/01/17 08:54:13;;;;;;;1467.07;999.90;;;30.00;99.90;;;;;;5006588;28;20030;-71
2024/01/17 08:56:40;;;;;;;1461.57;999.90;;;30.00;99.90;;;;;;5011780;28;20083;-71
2024/01/17 08:59:06;;;;;;;1457.70;999.90;;;30.10;99.90;;;;;;5012042;28;20423;-68
2024/01/17 09:01:33;;;;;;;1452.32;999.90;;;30.00;99.90;;;;;;5014078;28;20044;-68
2024/01/17 09:03:59;;;;;;;1430.00;999.90;;;30.00;99.90;;;;;;5013766;28;20051;-68
2024/01/17 09:06:26;;;;;;;1472.07;999.90;;;30.00;99.90;;;;;;4999794;28;20026;-68
2024/01/17 09:08:52;;;;;;;1442.60;999.90;;;30.00;99.90;;;;;;4994220;28;20026;-68
2024/01/17 09:11:19;;;;;;;1420.40;999.90;;;29.90;99.90;;;;;;4994453;28;20065;-69
2024/01/17 09:13:48;;;;;;;1436.47;999.90;;;30.00;99.90;;;;;;4994606;28;20105;-72
2024/01/17 09:16:14;;;;;;;1464.63;999.90;;;29.90;99.90;;;;;;4994390;28;20037;-71
2024/01/17 09:18:41;;;;;;;1452.65;999.90;;;29.80;99.90;;;;;;5008875;28;20029;-70
2024/01/17 09:21:07;;;;;;;1472.93;999.90;;;29.80;99.90;;;;;;5014271;28;20514;-70
2024/01/17 09:23:34;;;;;;;1471.68;999.90;;;29.70;99.90;;;;;;5019206;28;20026;-71
2024/01/17 09:26:01;;;;;;;1504.63;999.90;;;29.70;99.90;;;;;;5024103;28;20046;-72
2024/01/17 09:28:27;;;;;;;1459.82;999.90;;;29.70;99.90;;;;;;5022980;28;20483;-69
2024/01/17 09:30:54;;;;;;;1472.32;999.90;;;29.80;99.90;;;;;;5023960;28;20071;-71
2024/01/17 09:33:20;;;;;;;1477.07;999.90;;;29.80;99.90;;;;;;5024763;28;20092;-72
2024/01/17 09:35:48;;;;;;;1464.25;999.90;;;29.70;99.90;;;;;;5022548;28;20022;-69
2024/01/17 09:38:15;;;;;;;1476.70;999.90;;;29.70;99.90;;;;;;5023265;28;20018;-71
2024/01/17 09:40:42;;;;;;;1450.38;999.90;;;29.80;99.90;;;;;;5023871;28;20029;-72
2024/01/17 09:43:10;;;;;;;1477.60;999.90;;;29.70;99.90;;;;;;5033266;28;20168;-72
2024/01/17 09:45:38;;;;;;;1455.32;999.90;;;29.70;99.90;;;;;;5022463;28;20156;-69
2024/01/17 09:48:06;;;;;;;1465.43;999.90;;;29.80;99.90;;;;;;5021019;28;20052;-69
2024/01/17 09:50:32;;;;;;;1458.00;999.90;;;29.70;99.90;;;;;;5018245;28;20026;-68
2024/01/17 09:53:04;;;;;;;1472.82;999.90;;;29.80;99.90;;;;;;5023699;28;20014;-68
2024/01/17 09:55:34;;;;;;;1486.03;999.90;;;29.80;99.90;;;;;;5021016;28;20073;-69
2024/01/17 09:58:02;;;;;;;1466.80;999.90;;;29.80;99.90;;;;;;5022446;28;20451;-69
2024/01/17 10:00:29;;;;;;;1457.75;999.90;;;29.70;99.90;;;;;;5026726;28;20020;-68
2024/01/17 10:02:56;;;;;;;1485.63;999.90;;;29.70;99.90;;;;;;5089692;23;20064;-69
2024/01/17 10:05:26;;;;;;;1479.05;999.90;;;29.70;99.90;;;;;;5063483;28;20051;-68
2024/01/17 10:07:54;;;;;;;1476.50;999.90;;;29.70;99.90;;;;;;5071654;28;20044;-68
2024/01/17 10:10:21;;;;;;;1469.15;999.90;;;29.70;99.90;;;;;;5072172;28;20077;-67
2024/01/17 10:12:48;;;;;;;1492.75;999.90;;;29.70;99.90;;;;;;5071631;28;20390;-69
2024/01/17 10:15:15;;;;;;;1447.55;999.90;;;29.70;99.90;;;;;;5062413;28;20028;-67
2024/01/17 10:17:42;;;;;;;1377.10;999.90;;;29.70;99.90;;;;;;5069861;28;20294;-69
2024/01/17 10:20:09;;;;;;;1481.82;999.90;;;29.70;99.90;;;;;;5066145;28;20032;-68
2024/01/17 10:22:36;;;;;;;1473.40;999.90;;;29.80;99.90;;;;;;5065326;28;20025;-69
2024/01/17 10:25:03;;;;;;;1478.70;999.90;;;29.80;99.90;;;;;;5066561;28;20095;-68
2024/01/17 10:27:30;;;;;;;1493.22;999.90;;;29.80;99.90;;;;;;5065293;28;20355;-66
2024/01/17 10:29:56;;;;;;;1487.50;999.90;;;29.80;99.90;;;;;;5065254;28;20016;-67
2024/01/17 10:32:27;;;;;;;1482.30;999.90;;;29.80;99.90;;;;;;5065697;28;20094;-69
2024/01/17 10:34:55;;;;;;;1477.28;999.90;;;29.70;99.90;;;;;;5065552;28;20510;-68
2024/01/17 10:37:22;;;;;;;1488.05;999.90;;;29.70;99.90;;;;;;5067086;28;20031;-67
2024/01/17 10:40:09;;;;;;;1485.97;999.90;;;29.70;99.90;;;;;;5066117;28;20024;-68
2024/01/17 10:42:35;;;;;;;1493.97;999.90;;;29.60;99.90;;;;;;5065197;28;20474;-69
2024/01/17 10:45:03;;;;;;;1486.15;999.90;;;29.40;99.90;;;;;;5064898;28;20422;-69
2024/01/17 10:47:30;;;;;;;1497.53;999.90;;;29.30;99.90;;;;;;5064913;28;20090;-67
2024/01/17 10:49:57;;;;;;;1493.97;999.90;;;29.20;99.90;;;;;;5066436;28;20013;-67
2024/01/17 10:52:28;;;;;;;1485.72;999.90;;;29.10;99.90;;;;;;5065628;28;20095;-67
2024/01/17 10:55:04;;;;;;;1471.18;999.90;;;28.90;99.90;;;;;;5069301;28;20021;-68
2024/01/17 10:57:34;;;;;;;1486.28;999.90;;;28.80;99.90;;;;;;5065952;28;20041;-70
2024/01/17 11:00:04;;;;;;;1475.57;999.90;;;28.80;99.90;;;;;;5057303;28;20427;-70
2024/01/17 11:02:31;;;;;;;1470.93;999.90;;;28.60;99.90;;;;;;5057708;28;20073;-73
2024/01/17 11:05:07;;;;;;;1470.50;999.90;;;28.70;99.90;;;;;;5064269;28;20043;-73
2024/01/17 11:07:35;;;;;;;1464.45;999.90;;;28.70;99.90;;;;;;5072944;28;20019;-70
2024/01/17 11:10:04;;;;;;;1466.38;999.90;;;28.70;99.90;;;;;;5062783;28;20013;-69
2024/01/17 11:12:35;;;;;;;1477.65;999.90;;;28.70;99.90;;;;;;5067286;28;20442;-69
2024/01/17 11:15:04;;;;;;;1480.57;999.90;;;28.80;99.90;;;;;;5073693;28;20031;-69
2024/01/17 11:17:42;;;;;;;1490.30;999.90;;;28.70;99.90;;;;;;5067012;28;20098;-72
2024/01/17 11:20:10;;;;;;;1491.25;999.90;;;28.80;99.90;;;;;;5056536;28;20025;-70
2024/01/17 11:22:38;;;;;;;1477.85;999.90;;;28.80;99.90;;;;;;5053952;28;20036;-70
2024/01/17 11:25:38;;;;;;;1478.30;999.90;;;28.70;99.90;;;;;;5054815;28;20457;-72
2024/01/17 11:28:19;;;;;;;1485.45;999.90;;;28.60;99.90;;;;;;5054874;28;20027;-70
2024/01/17 11:31:10;;;;;;;1480.43;999.90;;;28.60;99.90;;;;;;5055880;28;20062;-69
2024/01/17 11:33:38;;;;;;;1471.43;999.90;;;28.60;99.90;;;;;;5054423;28;20021;-69
2024/01/17 11:36:05;;;;;;;1477.65;999.90;;;28.50;99.90;;;;;;5055070;28;20021;-70
2024/01/17 11:38:33;;;;;;;1468.68;999.90;;;28.40;99.90;;;;;;5056068;28;20463;-69
2024/01/17 11:41:06;;;;;;;1475.28;999.90;;;28.50;99.90;;;;;;5056827;28;20039;-70
2024/01/17 11:43:37;;;;;;;1457.45;999.90;;;28.50;99.90;;;;;;5059607;28;20016;-70
2024/01/17 11:46:06;;;;;;;1479.68;999.90;;;28.50;99.90;;;;;;5060841;28;20027;-70
2024/01/17 11:48:34;;;;;;;1469.22;999.90;;;28.50;99.90;;;;;;5060956;28;20086;-70
2024/01/17 11:51:05;;;;;;;1466.55;999.90;;;28.50;99.90;;;;;;5056739;28;20489;-71
2024/01/17 11:53:34;;;;;;;1471.82;999.90;;;28.50;99.90;;;;;;5064050;28;20031;-72
2024/01/17 11:56:04;;;;;;;1475.72;999.90;;;28.50;99.90;;;;;;5067996;28;20024;-71
2024/01/17 11:58:40;;;;;;;1460.43;999.90;;;28.40;99.90;;;;;;5055056;28;20442;-72
2024/01/17 12:01:09;;;;;;;1473.47;999.90;;;28.40;99.90;;;;;;5054594;28;20017;-71